createdAt,value
2017-11-22T00:00:16.226Z,8.60
2017-11-22T00:02:43.747Z,8.50
2017-11-22T00:05:11.257Z,8.60
2017-11-22T00:07:38.842Z,8.50
2017-11-22T00:10:06.405Z,8.50
2017-11-22T00:12:33.932Z,8.50
2017-11-22T00:15:01.428Z,8.60
2017-11-22T00:17:28.940Z,8.50
2017-11-22T00:19:56.449Z,8.50
2017-11-22T00:22:23.963Z,8.50
2017-11-22T00:24:51.457Z,8.50
2017-11-22T00:27:18.972Z,8.50
2017-11-22T00:29:46.476Z,8.50
2017-11-22T00:32:14.006Z,8.50
2017-11-22T00:34:41.509Z,8.40
2017-11-22T00:37:09.013Z,8.40
2017-11-22T00:39:36.529Z,8.50
2017-11-22T00:42:04.041Z,8.50
2017-11-22T00:44:32.332Z,8.60
2017-11-22T00:47:00.592Z,8.60
2017-11-22T00:49:28.879Z,8.50
2017-11-22T00:51:57.172Z,8.40
2017-11-22T00:54:24.696Z,8.40
2017-11-22T00:56:52.197Z,8.50
2017-11-22T00:59:19.719Z,8.40
2017-11-22T01:01:47.221Z,8.40
2017-11-22T01:04:14.745Z,8.50
2017-11-22T01:06:43.008Z,8.80
2017-11-22T01:09:10.527Z,8.80
2017-11-22T01:11:38.030Z,8.90
2017-11-22T01:14:05.609Z,8.90
2017-11-22T01:16:33.183Z,8.90
2017-11-22T01:19:00.704Z,8.90
2017-11-22T01:21:28.208Z,8.80
2017-11-22T01:23:55.732Z,8.80
2017-11-22T01:26:24.000Z,9.00
2017-11-22T01:28:52.304Z,9.00
2017-11-22T01:31:19.816Z,9.00
2017-11-22T01:33:47.316Z,9.10
2017-11-22T01:36:14.828Z,9.10
2017-11-22T01:38:42.336Z,9.00
2017-11-22T01:41:09.852Z,8.90
2017-11-22T01:43:37.348Z,8.90
2017-11-22T01:46:04.859Z,8.80
2017-11-22T01:48:32.355Z,8.70
2017-11-22T01:51:00.631Z,8.60
2017-11-22T01:53:28.891Z,8.70
2017-11-22T01:55:56.405Z,8.70
2017-11-22T01:58:23.902Z,8.70
2017-11-22T02:00:53.362Z,8.50
2017-11-22T02:03:20.866Z,8.60
2017-11-22T02:05:48.382Z,8.70
2017-11-22T02:08:15.875Z,8.70
2017-11-22T02:10:43.388Z,8.60
2017-11-22T02:13:10.892Z,8.60
2017-11-22T02:15:38.405Z,8.70
2017-11-22T02:18:05.904Z,8.60
2017-11-22T02:20:33.465Z,8.70
2017-11-22T02:23:01.017Z,8.60
2017-11-22T02:25:28.544Z,8.60
2017-11-22T02:27:56.047Z,8.70
2017-11-22T02:30:23.541Z,8.70
2017-11-22T02:32:51.053Z,8.60
2017-11-22T02:35:18.549Z,8.60
2017-11-22T02:37:46.069Z,8.50
2017-11-22T02:40:13.567Z,8.40
2017-11-22T02:42:41.085Z,8.40
2017-11-22T02:45:08.598Z,8.50
2017-11-22T02:47:36.117Z,8.50
2017-11-22T02:50:04.381Z,8.40
2017-11-22T02:52:31.895Z,8.40
2017-11-22T02:54:59.405Z,8.40
2017-11-22T02:57:27.690Z,8.30
2017-11-22T02:59:55.955Z,8.20
2017-11-22T03:02:23.466Z,8.20
2017-11-22T03:04:50.976Z,8.00
2017-11-22T03:07:19.256Z,6.90
2017-11-22T03:09:47.525Z,6.40
2017-11-22T03:12:15.816Z,6.00
2017-11-22T03:14:44.087Z,5.70
2017-11-22T03:17:12.368Z,5.40
2017-11-22T03:19:40.627Z,4.90
2017-11-22T03:22:08.144Z,4.90
2017-11-22T03:24:35.640Z,4.60
2017-11-22T03:27:03.202Z,4.50
2017-11-22T03:29:31.478Z,4.30
2017-11-22T03:31:58.975Z,4.30
2017-11-22T03:34:26.487Z,4.20
2017-11-22T03:36:53.987Z,4.20
2017-11-22T03:39:21.504Z,4.00
2017-11-22T03:41:48.999Z,3.90
2017-11-22T03:44:16.520Z,3.70
2017-11-22T03:46:44.020Z,3.70
2017-11-22T03:49:14.354Z,3.60
2017-11-22T03:51:47.464Z,3.50
2017-11-22T03:54:14.983Z,3.50
2017-11-22T03:56:42.478Z,3.50
2017-11-22T03:59:09.992Z,3.50
2017-11-22T04:01:43.985Z,3.50
2017-11-22T04:04:12.290Z,3.40
2017-11-22T04:06:39.791Z,3.40
2017-11-22T04:09:07.309Z,3.40
2017-11-22T04:11:34.816Z,3.30
2017-11-22T04:14:02.339Z,3.30
2017-11-22T04:16:29.835Z,3.20
2017-11-22T04:19:03.213Z,3.20
2017-11-22T04:21:30.708Z,3.20
2017-11-22T04:23:58.992Z,3.20
2017-11-22T04:26:27.252Z,3.20
2017-11-22T04:28:54.764Z,3.20
2017-11-22T04:31:22.293Z,3.20
2017-11-22T04:33:49.854Z,3.30
2017-11-22T04:36:17.367Z,3.30
2017-11-22T04:38:44.880Z,3.30
2017-11-22T04:41:12.383Z,3.20
2017-11-22T04:43:39.879Z,3.10
2017-11-22T04:46:08.164Z,3.00
2017-11-22T04:48:35.659Z,3.00
2017-11-22T04:51:03.175Z,3.00
2017-11-22T04:53:30.671Z,3.00
2017-11-22T04:55:58.183Z,3.00
2017-11-22T04:58:26.447Z,3.10
2017-11-22T05:00:54.735Z,3.10
2017-11-22T05:03:23.003Z,3.10
2017-11-22T05:05:51.289Z,3.10
2017-11-22T05:08:18.791Z,3.00
2017-11-22T05:10:47.076Z,3.00
2017-11-22T05:13:14.572Z,3.00
2017-11-22T05:15:42.856Z,3.10
2017-11-22T05:18:11.120Z,3.00
2017-11-22T05:20:39.403Z,3.00
2017-11-22T05:23:07.668Z,3.00
2017-11-22T05:25:35.200Z,2.90
2017-11-22T05:28:02.692Z,2.90
2017-11-22T05:30:30.952Z,2.90
2017-11-22T05:32:58.463Z,2.90
2017-11-22T05:35:25.960Z,2.90
2017-11-22T05:37:53.480Z,2.80
2017-11-22T05:40:21.012Z,2.80
2017-11-22T05:42:48.536Z,2.80
2017-11-22T05:45:16.036Z,2.80
2017-11-22T05:47:43.552Z,2.70
2017-11-22T05:50:11.048Z,2.70
2017-11-22T05:52:38.664Z,2.60
2017-11-22T05:55:06.253Z,2.60
2017-11-22T05:57:34.534Z,2.50
2017-11-22T06:00:04.654Z,2.50
2017-11-22T06:02:32.179Z,2.40
2017-11-22T06:04:59.684Z,2.40
2017-11-22T06:07:27.265Z,2.40
2017-11-22T06:09:54.767Z,2.40
2017-11-22T06:12:22.283Z,2.40
2017-11-22T06:14:49.776Z,2.50
2017-11-22T06:17:17.646Z,2.50
2017-11-22T06:19:45.156Z,2.50
2017-11-22T06:22:12.661Z,2.40
2017-11-22T06:24:40.175Z,2.40
2017-11-22T06:27:07.779Z,2.40
2017-11-22T06:32:25.077Z,2.40
2017-11-22T06:34:52.596Z,2.30
2017-11-22T06:37:21.006Z,2.20
2017-11-22T06:39:48.527Z,2.20
2017-11-22T06:42:16.801Z,2.20
2017-11-22T06:44:44.323Z,2.20
2017-11-22T06:47:11.890Z,2.20
2017-11-22T06:49:39.425Z,2.30
2017-11-22T06:52:06.932Z,2.30
2017-11-22T06:54:35.220Z,2.50
2017-11-22T06:57:03.479Z,2.50
2017-11-22T06:59:31.016Z,2.50
2017-11-22T07:01:59.295Z,2.50
2017-11-22T07:04:26.803Z,2.60
2017-11-22T07:06:54.301Z,2.70
2017-11-22T07:09:21.817Z,2.70
2017-11-22T07:11:49.318Z,2.80
2017-11-22T07:14:16.844Z,2.80
2017-11-22T07:16:50.100Z,2.90
2017-11-22T07:19:17.632Z,3.00
2017-11-22T07:21:45.124Z,3.10
2017-11-22T07:24:13.384Z,3.20
2017-11-22T07:26:40.901Z,3.20
2017-11-22T07:29:08.393Z,3.20
2017-11-22T07:31:35.901Z,3.20
2017-11-22T07:34:03.400Z,3.30
2017-11-22T07:36:36.601Z,3.50
2017-11-22T07:39:04.096Z,3.80
2017-11-22T07:41:32.372Z,3.80
2017-11-22T07:43:59.872Z,3.90
2017-11-22T07:46:28.152Z,4.40
2017-11-22T07:48:55.648Z,4.40
2017-11-22T07:51:29.513Z,4.90
2017-11-22T07:53:57.165Z,4.90
2017-11-22T07:56:24.730Z,5.10
2017-11-22T07:58:52.224Z,5.30
2017-11-22T08:01:19.736Z,5.30
2017-11-22T08:03:49.157Z,5.40
2017-11-22T08:06:16.672Z,5.40
2017-11-22T08:08:44.166Z,5.40
2017-11-22T08:11:11.675Z,5.40
2017-11-22T08:13:39.932Z,5.50
2017-11-22T08:16:07.464Z,5.50
2017-11-22T08:18:34.973Z,5.60
2017-11-22T08:21:03.237Z,5.60
2017-11-22T08:23:31.516Z,5.70
2017-11-22T08:25:59.780Z,5.80
2017-11-22T08:28:27.291Z,5.80
2017-11-22T08:30:54.787Z,6.00
2017-11-22T08:33:22.295Z,6.10
2017-11-22T08:35:49.796Z,6.20
2017-11-22T08:38:17.307Z,6.20
2017-11-22T08:40:44.811Z,6.30
2017-11-22T08:43:18.084Z,6.30
2017-11-22T08:45:45.580Z,6.40
2017-11-22T08:48:13.096Z,6.30
2017-11-22T08:50:40.591Z,6.40
2017-11-22T08:53:08.100Z,6.60
2017-11-22T08:55:41.282Z,6.60
2017-11-22T08:58:14.412Z,6.70
2017-11-22T09:00:41.932Z,6.80
2017-11-22T09:03:09.481Z,6.90
2017-11-22T09:05:37.792Z,7.00
2017-11-22T09:08:05.301Z,7.20
2017-11-22T09:10:33.567Z,7.30
2017-11-22T09:13:05.802Z,7.40
2017-11-22T09:15:33.294Z,7.30
2017-11-22T09:18:06.428Z,7.60
2017-11-22T09:20:33.922Z,7.60
2017-11-22T09:23:01.428Z,7.70
2017-11-22T09:25:28.949Z,7.80
2017-11-22T09:27:56.452Z,7.80
2017-11-22T09:30:23.967Z,8.00
2017-11-22T09:32:51.461Z,8.10
2017-11-22T09:35:18.983Z,8.20
2017-11-22T09:37:46.483Z,8.30
2017-11-22T09:40:14.407Z,8.40
2017-11-22T09:42:41.899Z,8.50
2017-11-22T09:45:09.420Z,8.70
2017-11-22T09:47:36.915Z,8.80
2017-11-22T09:50:04.429Z,9.10
2017-11-22T09:52:31.925Z,9.20
2017-11-22T09:54:59.453Z,9.30
2017-11-22T09:57:26.947Z,9.60
2017-11-22T09:59:54.456Z,9.60
2017-11-22T10:02:21.951Z,9.80
2017-11-22T10:04:49.779Z,9.90
2017-11-22T10:07:17.274Z,10.00
2017-11-22T10:09:44.846Z,10.10
2017-11-22T10:12:13.294Z,10.20
2017-11-22T10:14:40.901Z,10.40
2017-11-22T10:17:12.420Z,10.60
2017-11-22T10:19:43.467Z,11.00
2017-11-22T10:22:10.992Z,11.00
2017-11-22T10:24:44.307Z,11.10
2017-11-22T10:27:18.224Z,11.20
2017-11-22T10:29:46.495Z,11.30
2017-11-22T10:32:20.624Z,11.40
2017-11-22T10:34:48.141Z,11.40
2017-11-22T10:37:15.652Z,11.60
2017-11-22T10:39:43.152Z,11.70
2017-11-22T10:42:10.662Z,11.90
2017-11-22T10:44:38.159Z,12.20
2017-11-22T10:47:05.676Z,12.30
2017-11-22T10:49:33.191Z,12.30
2017-11-22T10:52:00.720Z,12.40
2017-11-22T10:54:28.234Z,12.40
2017-11-22T10:56:56.518Z,12.80
2017-11-22T10:59:24.017Z,12.80
2017-11-22T11:01:51.534Z,13.30
2017-11-22T11:04:19.040Z,13.50
2017-11-22T11:06:47.319Z,14.10
2017-11-22T11:09:14.814Z,14.10
2017-11-22T11:11:43.100Z,14.30
2017-11-22T11:14:10.603Z,14.30
2017-11-22T11:16:38.118Z,14.40
2017-11-22T11:19:05.711Z,14.40
2017-11-22T11:21:33.308Z,14.50
2017-11-22T11:24:01.719Z,14.70
2017-11-22T11:26:29.300Z,14.70
2017-11-22T11:28:56.985Z,14.90
2017-11-22T11:31:25.482Z,15.10
2017-11-22T11:33:53.405Z,15.10
2017-11-22T11:36:32.656Z,15.20
2017-11-22T11:39:00.181Z,15.10
2017-11-22T11:41:27.790Z,15.00
2017-11-22T11:43:55.314Z,15.20
2017-11-22T11:46:22.817Z,15.10
2017-11-22T11:48:50.340Z,15.10
2017-11-22T11:51:17.842Z,15.10
2017-11-22T11:53:45.360Z,15.20
2017-11-22T11:56:12.865Z,15.10
2017-11-22T11:58:40.383Z,15.10
2017-11-22T12:01:07.889Z,15.30
2017-11-22T12:03:36.171Z,15.40
2017-11-22T12:06:04.440Z,15.50
2017-11-22T12:08:32.728Z,15.40
2017-11-22T12:11:00.993Z,15.50
2017-11-22T12:13:28.527Z,15.50
2017-11-22T12:15:56.028Z,15.40
2017-11-22T12:18:23.528Z,15.40
2017-11-22T12:21:00.740Z,15.50
2017-11-22T12:23:28.241Z,15.40
2017-11-22T12:25:55.761Z,15.40
2017-11-22T12:28:24.036Z,15.30
2017-11-22T12:30:51.569Z,15.30
2017-11-22T12:33:19.077Z,15.50
2017-11-22T12:35:46.592Z,15.50
2017-11-22T12:38:14.220Z,15.60
2017-11-22T12:40:41.836Z,15.70
2017-11-22T12:43:10.128Z,15.70
2017-11-22T12:45:37.676Z,15.70
2017-11-22T12:48:06.016Z,15.40
2017-11-22T12:50:34.305Z,15.50
2017-11-22T12:53:01.809Z,15.50
2017-11-22T12:55:29.323Z,15.50
2017-11-22T12:58:00.630Z,15.60
2017-11-22T13:00:28.144Z,15.40
2017-11-22T13:02:56.418Z,15.50
2017-11-22T13:05:24.699Z,15.50
2017-11-22T13:07:52.959Z,15.50
2017-11-22T13:13:13.191Z,15.40
2017-11-22T13:15:41.476Z,15.20
2017-11-22T13:18:08.990Z,15.20
2017-11-22T13:20:36.521Z,15.10
2017-11-22T13:23:04.019Z,15.10
2017-11-22T13:25:31.524Z,15.20
2017-11-22T13:27:59.042Z,15.20
2017-11-22T13:30:26.544Z,15.00
2017-11-22T13:32:54.072Z,15.00
2017-11-22T13:35:22.346Z,14.90
2017-11-22T13:37:50.628Z,14.90
2017-11-22T13:40:18.900Z,14.90
2017-11-22T13:42:47.190Z,14.80
2017-11-22T13:45:14.696Z,14.80
2017-11-22T13:47:42.215Z,14.80
2017-11-22T13:50:09.725Z,14.70
2017-11-22T13:52:37.254Z,14.60
2017-11-22T13:55:04.772Z,14.60
2017-11-22T13:57:33.053Z,14.90
2017-11-22T14:00:00.557Z,14.90
2017-11-22T14:02:28.084Z,14.90
2017-11-22T14:04:55.587Z,15.00
2017-11-22T14:07:23.105Z,15.00
2017-11-22T14:09:50.603Z,14.90
2017-11-22T14:12:18.103Z,14.70
2017-11-22T14:14:45.632Z,14.70
2017-11-22T14:17:13.141Z,14.80
2017-11-22T14:19:40.664Z,14.70
2017-11-22T14:22:08.937Z,14.20
2017-11-22T14:24:37.219Z,14.30
2017-11-22T14:27:05.489Z,14.40
2017-11-22T14:29:33.788Z,14.30
2017-11-22T14:32:01.302Z,14.20
2017-11-22T14:34:28.826Z,14.20
2017-11-22T14:36:56.334Z,14.20
2017-11-22T14:39:24.619Z,13.90
2017-11-22T14:41:52.885Z,13.70
2017-11-22T14:44:21.191Z,13.50
2017-11-22T14:46:48.693Z,13.50
2017-11-22T14:49:16.192Z,13.50
2017-11-22T14:51:44.487Z,12.90
2017-11-22T14:54:11.992Z,12.90
2017-11-22T14:56:39.500Z,12.90
2017-11-22T14:59:07.065Z,12.90
2017-11-22T15:01:34.708Z,12.70
2017-11-22T15:04:02.393Z,12.60
2017-11-22T15:06:30.279Z,12.60
2017-11-22T15:08:58.120Z,12.50
2017-11-22T15:11:26.066Z,12.30
2017-11-22T15:13:53.636Z,12.10
2017-11-22T15:16:21.155Z,11.80
2017-11-22T15:18:48.666Z,11.60
2017-11-22T15:21:16.192Z,11.50
2017-11-22T15:23:44.457Z,11.10
2017-11-22T15:26:11.980Z,11.10
2017-11-22T15:28:39.479Z,11.00
2017-11-22T15:31:06.975Z,10.70
2017-11-22T15:33:34.500Z,10.50
2017-11-22T15:36:02.763Z,10.30
2017-11-22T15:38:30.284Z,10.20
2017-11-22T15:40:57.783Z,10.20
2017-11-22T15:43:25.309Z,10.00
2017-11-22T15:45:52.799Z,9.80
2017-11-22T15:48:20.329Z,9.70
2017-11-22T15:50:47.832Z,9.70
2017-11-22T15:53:15.356Z,9.80
2017-11-22T15:55:42.855Z,9.80
2017-11-22T15:58:10.381Z,9.70
2017-11-22T16:00:37.889Z,9.60
2017-11-22T16:03:05.402Z,9.50
2017-11-22T16:05:32.901Z,9.30
2017-11-22T16:08:00.458Z,9.20
2017-11-22T16:10:27.952Z,9.10
2017-11-22T16:12:55.476Z,9.10
2017-11-22T16:15:22.989Z,9.00
2017-11-22T16:17:50.500Z,8.80
2017-11-22T16:20:18.001Z,8.70
2017-11-22T16:22:45.561Z,8.60
2017-11-22T16:25:13.099Z,8.50
2017-11-22T16:27:41.364Z,8.40
2017-11-22T16:30:08.919Z,8.40
2017-11-22T16:32:36.413Z,8.50
2017-11-22T16:35:03.940Z,8.50
2017-11-22T16:37:31.441Z,8.40
2017-11-22T16:39:58.955Z,8.30
2017-11-22T16:42:26.465Z,8.40
2017-11-22T16:44:54.747Z,8.10
2017-11-22T16:47:23.107Z,8.00
2017-11-22T16:49:51.392Z,7.90
2017-11-22T16:52:19.706Z,7.90
2017-11-22T16:54:47.224Z,7.80
2017-11-22T16:57:15.540Z,7.70
2017-11-22T16:59:43.093Z,7.60
2017-11-22T17:02:10.596Z,7.60
2017-11-22T17:04:38.110Z,7.50
2017-11-22T17:07:05.616Z,7.40
2017-11-22T17:09:33.170Z,7.30
2017-11-22T17:12:00.711Z,7.30
2017-11-22T17:14:28.243Z,7.20
2017-11-22T17:16:55.753Z,7.10
2017-11-22T17:19:23.295Z,7.10
2017-11-22T17:21:50.853Z,7.00
2017-11-22T17:24:18.451Z,7.10
2017-11-22T17:26:46.764Z,6.90
2017-11-22T17:29:14.259Z,6.90
2017-11-22T17:31:41.776Z,6.90
2017-11-22T17:34:09.337Z,6.90
2017-11-22T17:36:36.895Z,6.80
2017-11-22T17:39:04.444Z,6.70
2017-11-22T17:41:32.007Z,6.70
2017-11-22T17:43:59.503Z,6.70
2017-11-22T17:46:27.061Z,6.60
2017-11-22T17:48:54.614Z,6.50
2017-11-22T17:51:22.181Z,6.50
2017-11-22T17:53:49.729Z,6.50
2017-11-22T17:56:17.247Z,6.40
2017-11-22T17:58:45.559Z,6.40
2017-11-22T18:01:13.131Z,6.30
2017-11-22T18:03:41.437Z,6.20
2017-11-22T18:06:09.736Z,6.10
2017-11-22T18:08:37.243Z,6.10
2017-11-22T18:11:04.812Z,6.00
2017-11-22T18:13:32.359Z,5.90
2017-11-22T18:15:59.924Z,5.80
2017-11-22T18:18:27.474Z,5.70
2017-11-22T18:20:55.060Z,5.60
2017-11-22T18:23:22.610Z,5.60
2017-11-22T18:25:50.155Z,5.50
2017-11-22T18:28:19.547Z,5.50
2017-11-22T18:30:47.107Z,5.60
2017-11-22T18:33:15.397Z,5.70
2017-11-22T18:35:42.897Z,5.70
2017-11-22T18:38:11.218Z,5.60
2017-11-22T18:40:38.711Z,5.60
2017-11-22T18:43:06.275Z,5.60
2017-11-22T18:45:34.550Z,5.60
2017-11-22T18:48:02.838Z,5.50
2017-11-22T18:50:31.108Z,5.50
2017-11-22T18:52:59.396Z,5.50
2017-11-22T18:55:27.667Z,5.50
2017-11-22T18:57:55.953Z,5.40
2017-11-22T19:00:23.498Z,5.40
2017-11-22T19:02:51.815Z,5.30
2017-11-22T19:05:19.312Z,5.30
2017-11-22T19:07:46.870Z,5.30
2017-11-22T19:10:14.418Z,5.20
2017-11-22T19:12:41.938Z,5.20
2017-11-22T19:15:09.482Z,5.10
2017-11-22T19:17:37.079Z,5.10
2017-11-22T19:20:04.640Z,5.10
2017-11-22T19:22:32.138Z,5.20
2017-11-22T19:25:00.419Z,5.10
2017-11-22T19:27:28.734Z,5.10
2017-11-22T19:29:56.303Z,5.10
2017-11-22T19:32:23.847Z,5.20
2017-11-22T19:34:51.422Z,5.20
2017-11-22T19:37:19.962Z,5.10
2017-11-22T19:39:48.307Z,5.00
2017-11-22T19:42:16.145Z,4.90
2017-11-22T19:44:43.707Z,5.00
2017-11-22T19:47:11.247Z,5.10
2017-11-22T19:49:38.780Z,5.10
2017-11-22T19:52:07.040Z,5.20
2017-11-22T19:54:34.596Z,5.10
2017-11-22T19:57:02.161Z,5.00
2017-11-22T19:59:29.699Z,4.80
2017-11-22T20:01:57.249Z,4.80
2017-11-22T20:04:24.803Z,4.70
2017-11-22T20:09:52.984Z,4.60
2017-11-22T20:12:20.556Z,4.60
2017-11-22T20:14:48.108Z,4.50
2017-11-22T20:17:15.646Z,4.40
2017-11-22T20:19:43.211Z,4.50
2017-11-22T20:22:10.710Z,4.50
2017-11-22T20:24:38.275Z,4.50
2017-11-22T20:27:05.829Z,4.50
2017-11-22T20:29:33.352Z,4.50
2017-11-22T20:32:00.895Z,4.50
2017-11-22T20:34:28.445Z,4.50
2017-11-22T20:36:56.005Z,4.50
2017-11-22T20:39:23.565Z,4.40
2017-11-22T20:41:51.246Z,4.50
2017-11-22T20:44:18.839Z,4.50
2017-11-22T20:46:47.134Z,4.50
2017-11-22T20:49:14.665Z,4.60
2017-11-22T20:51:42.244Z,4.60
2017-11-22T20:54:09.799Z,4.80
2017-11-22T20:56:37.405Z,4.70
2017-11-22T20:59:04.970Z,4.60
2017-11-22T21:01:32.540Z,4.60
2017-11-22T21:04:00.110Z,4.60
2017-11-22T21:06:27.667Z,4.50
2017-11-22T21:08:55.235Z,4.50
2017-11-22T21:11:23.553Z,4.50
2017-11-22T21:13:51.874Z,4.50
2017-11-22T21:16:19.427Z,4.40
2017-11-22T21:18:47.031Z,4.50
2017-11-22T21:21:14.580Z,4.50
2017-11-22T21:23:42.128Z,4.50
2017-11-22T21:26:09.710Z,4.40
2017-11-22T21:28:38.063Z,4.40
2017-11-22T21:31:05.672Z,4.40
2017-11-22T21:33:33.982Z,4.50
2017-11-22T21:36:01.539Z,4.50
2017-11-22T21:38:29.072Z,4.60
2017-11-22T21:40:57.410Z,4.60
2017-11-22T21:43:24.948Z,4.60
2017-11-22T21:45:52.724Z,4.70
2017-11-22T21:48:20.345Z,4.80
2017-11-22T21:50:47.945Z,4.80
2017-11-22T21:53:15.478Z,4.80
2017-11-22T21:55:43.052Z,4.70
2017-11-22T21:58:10.598Z,4.70
2017-11-22T22:00:38.183Z,4.80
2017-11-22T22:03:06.817Z,4.70
2017-11-22T22:05:35.240Z,4.80
2017-11-22T22:08:03.550Z,4.80
2017-11-22T22:10:31.148Z,4.70
2017-11-22T22:12:58.659Z,4.70
2017-11-22T22:15:26.246Z,4.70
2017-11-22T22:17:53.875Z,4.60
2017-11-22T22:20:21.394Z,4.60
2017-11-22T22:22:48.940Z,4.60
2017-11-22T22:25:16.464Z,4.60
2017-11-22T22:27:44.741Z,4.60
2017-11-22T22:30:12.285Z,4.60
2017-11-22T22:32:39.834Z,4.50
2017-11-22T22:35:07.375Z,4.40
2017-11-22T22:37:34.904Z,4.40
2017-11-22T22:40:02.395Z,4.40
2017-11-22T22:42:29.965Z,4.30
2017-11-22T22:44:57.503Z,4.20
2017-11-22T22:47:25.053Z,4.20
2017-11-22T22:49:52.544Z,4.00
2017-11-22T22:52:20.061Z,4.00
2017-11-22T22:54:47.603Z,3.90
2017-11-22T22:57:16.222Z,3.80
2017-11-22T22:59:43.758Z,3.80
2017-11-22T23:02:11.276Z,3.80
2017-11-22T23:04:38.814Z,3.90
2017-11-22T23:07:06.328Z,4.00
2017-11-22T23:09:33.840Z,3.90
2017-11-22T23:12:01.360Z,3.90
2017-11-22T23:14:28.871Z,3.90
2017-11-22T23:16:57.148Z,3.70
2017-11-22T23:19:24.662Z,3.80
2017-11-22T23:21:52.156Z,3.70
2017-11-22T23:24:19.670Z,3.80
2017-11-22T23:26:47.171Z,3.80
2017-11-22T23:29:14.681Z,3.70
2017-11-22T23:31:42.180Z,3.70
2017-11-22T23:34:09.692Z,3.70
2017-11-22T23:36:37.188Z,3.60
2017-11-22T23:39:04.704Z,3.70
2017-11-22T23:41:32.242Z,3.60
2017-11-22T23:44:00.538Z,3.60
2017-11-22T23:46:28.032Z,3.60
2017-11-22T23:48:55.544Z,3.60
2017-11-22T23:51:23.812Z,3.60
2017-11-22T23:53:52.108Z,3.80
2017-11-22T23:56:19.608Z,3.80
2017-11-22T23:58:47.117Z,4.00
